• Join FlightAware (Why Join?)
  • Login
  • US Flag 
09:00AM EDT


 

Airport Tracker/Info


-or-


 

Live Flight TrackerFlight Track Log ✈ N724HS ✈ 18-Jun-2014 ✈ KLAL - KFLL

Flight Track Log - Related Links

Times and Time Zones

All times are in EDT time to prevent confusion due to time zone crossing. See the N724HS flight status page for this flight to view local times or setup timezone preferences in your user account.

Time Position Orientation Groundspeed Altitude Reporting Facility
EDT Latitude Longitude Course Direction KTS MPH feet Rate Location/Type
03:24PM 27.9833 -82.0000 180° South 133 153 800  Level Tampa TRACON
03:25PM 27.9667 -82.0000 144° Southeast 145 167 1,400 840 Climbing Tampa TRACON
03:26PM 27.9000 -82.0167 192° South 221 254 2,200 720 Climbing Tampa TRACON
03:27PM 27.8733 -82.0169 181° South 209 241 2,700 480 Climbing Miami Center
03:28PM 27.8150 -82.0339 194° South 219 252 3,000 1,020 Climbing Miami Center
03:29PM 27.7583 -82.0500 194° South 211 243 4,800 1,860 Climbing Miami Center
03:30PM 27.7000 -82.0692 196° South 188 216 6,900 1,800 Climbing Miami Center
03:31PM 27.6514 -82.0850 196° South 188 216 8,500 1,440 Climbing Miami Center
03:32PM 27.6014 -82.1019 197° South 187 215 9,900 1,380 Climbing Miami Center
03:33PM 27.5533 -82.1261 204° Southwest 202 232 11,400 1,320 Climbing Miami Center
03:34PM 27.5019 -82.1403 194° South 194 223 12,700 1,260 Climbing Miami Center
03:35PM 27.4394 -82.1625 198° South 194 223 14,100 1,140 Climbing Miami Center
03:36PM 27.3844 -82.1794 195° South 200 230 15,100 780 Climbing Miami Center
03:37PM 27.3292 -82.1964 195° South 206 237 15,800 360 Climbing Miami Center
03:38PM 27.2717 -82.2153 196° South 215 247 15,900 60 Climbing Miami Center
03:39PM 27.2083 -82.2344 195° South 233 268 16,000  Climbing Miami Center
03:40PM 27.1442 -82.2553 196° South 238 274 16,000  Level Miami Center
03:41PM 27.0783 -82.2758 196° South 241 277 16,000  Level Miami Center
03:42PM 27.0003 -82.3006 196° South 242 278 16,000 240 Level Miami Center
03:43PM 26.9372 -82.3150 192° South 237 273 16,500 480 Climbing Miami Center
03:44PM 26.8706 -82.3075 174° South 224 258 17,000 240 Climbing Miami Center
03:45PM 26.8072 -82.3011 175° South 226 260 17,000  Level Miami Center
03:46PM 26.7347 -82.2939 175° South 243 280 17,000  Level Miami Center
03:47PM 26.6678 -82.2875 175° South 243 280 17,000  Level Miami Center
03:48PM 26.5942 -82.2789 174° South 247 284 17,000  Level Miami Center
03:49PM 26.5275 -82.2708 174° South 246 283 17,000  Level Miami Center
03:50PM 26.4531 -82.2625 174° South 247 284 17,000  Level Miami Center
03:51PM 26.3856 -82.2547 174° South 247 284 17,000  Level Miami Center
03:52PM 26.3111 -82.2458 174° South 249 287 17,000  Level Miami Center
03:53PM 26.2428 -82.2367 173° South 249 287 17,000  Level Miami Center
03:54PM 26.1686 -82.2281 174° South 249 287 17,000  Level Miami Center
03:55PM 26.1017 -82.2119 168° South 249 287 17,000  Level Miami Center
03:56PM 26.0403 -82.1619 144° Southeast 254 292 17,000  Level Miami Center
03:57PM 25.9944 -82.1033 131° Southeast 254 292 17,000  Level Miami Center
03:58PM 25.9478 -82.0378 128° Southeast 255 293 17,000  Level Miami Center
04:00PM 25.9044 -81.9783 129° Southeast 250 288 17,000  Level Miami Center
04:01PM 25.8697 -81.9067 118° Southeast 249 287 17,000 -120 Level Miami Center
04:02PM 25.8422 -81.8375 114° Southeast 249 287 16,800 -420 Descending Miami Center
04:03PM 25.8106 -81.7614 115° Southeast 250 288 16,200 -540 Descending Miami Center
04:04PM 25.7822 -81.6892 114° Southeast 255 293 15,800 -480 Descending Miami Center
04:05PM 25.7594 -81.6067 107° East 260 299 15,300 -540 Descending Miami Center
04:06PM 25.7594 -81.5256 90° East 262 302 14,800 -540 Descending Miami Center
04:07PM 25.7592 -81.4389 90° East 263 303 14,300 -540 Descending Miami Center
04:08PM 25.7622 -81.3583 88° East 263 303 13,800 -540 Descending Miami Center
04:09PM 25.7692 -81.2836 84° East 264 304 13,300 -960 Descending Miami Center
04:10PM 25.7794 -81.1994 82° East 271 312 11,900 -1,740 Descending Miami Center
04:11PM 25.7869 -81.1228 84° East 283 326 10,300 -1,800 Descending Miami Center
04:11PM 25.7875 -81.1128 86° East 281 323 10,100 -1,200 Descending Miami Center
04:12PM 25.7950 -81.0331 84° East 267 307 9,000 -1,140 Descending Miami Center
04:12PM 25.7981 -81.0175 78° East 258 297 9,000 -1,020 Level Miami Center
04:13PM 25.8131 -80.9558 75° East 262 302 8,000 -1,260 Descending Miami Center
04:13PM 25.8197 -80.9400 65° Northeast 266 306 7,700 -1,380 Descending Miami Center
04:14PM 25.8528 -80.8922 52° Northeast 260 299 6,600 -1,500 Descending Miami Center
04:14PM 25.8636 -80.8769 52° Northeast 263 303 6,200 -1,380 Descending Miami Center
04:15PM 25.8969 -80.8308 51° Northeast 252 290 5,200 -1,140 Descending Miami Center
04:15PM 25.9050 -80.8161 59° Northeast 249 287 5,100 -240 Descending Miami Center
04:16PM 25.9325 -80.7667 58° Northeast 226 260 5,000 -120 Descending Miami Center
04:16PM 25.9389 -80.7564 55° Northeast 231 266 5,000  Level Miami Center
04:17PM 25.9700 -80.7069 55° Northeast 229 264 5,000  Level Miami Center
04:17PM 25.9750 -80.6975 60° Northeast 230 265 5,000  Level Miami Center
04:18PM 26.0008 -80.6517 58° Northeast 230 265 5,000  Level Miami Center
04:18PM 26.0097 -80.6378 55° Northeast 230 265 5,000  Level Miami Center
04:19PM 26.0239 -80.5861 73° East 231 266 5,000 -300 Level Miami Center
04:19PM 26.0283 -80.5692 74° East 229 264 4,700 -1,380 Descending Miami Center
04:20PM 26.0414 -80.5111 76° East 238 274 3,500 -1,380 Descending Miami Center
04:20PM 26.0456 -80.4989 69° East 236 272 3,300 -900 Descending Miami Center
04:21PM 26.0600 -80.4500 72° East 210 242 2,600 -780 Descending Miami Center
04:21PM 26.0656 -80.4275 75° East 203 234 2,500 -120 Descending Miami Center
04:22PM 26.0764 -80.3908 72° East 196 226 2,500  Level Miami Center
04:22PM 26.0789 -80.3672 83° East 205 236 2,500  Level Miami Center
04:23PM 26.0783 -80.3261 91° East 174 200 2,500  Level Miami Center
04:23PM 26.0781 -80.3114 91° East 182 209 2,500 -600 Level Miami Center
04:24PM 26.0772 -80.2772 92° East 166 191 1,900 -780 Descending Miami Center
04:24PM 26.0778 -80.2614 88° East 167 192 1,700 -660 Descending Miami Center
04:25PM 26.0761 -80.2286 93° East 116 133 1,200 -720 Descending Miami Center
04:25PM 26.0767 -80.2200 86° East 136 157 1,000 -720 Descending Miami Center
04:26PM 26.0764 -80.1936 91° East 105 121 500 -720 Descending Miami Center
04:26PM 26.0769 -80.1833 87° East 112 129 300 -300 Descending Miami Center
04:27PM 26.0767 -80.1522 91° East 109 125 100 -240 Descending Miami Center
04:29PM 26.0667 -80.1500 50° Northeast  Level FlightAware Approximate